createdAt,value
2024-03-25T00:00:26.344Z,7.82
2024-03-25T00:01:25.285Z,7.86
2024-03-25T00:02:25.338Z,7.84
2024-03-25T00:03:26.305Z,7.92
2024-03-25T00:04:25.332Z,7.98
2024-03-25T00:05:26.284Z,7.92
2024-03-25T00:06:25.337Z,7.84
2024-03-25T00:07:25.340Z,7.89
2024-03-25T00:08:26.315Z,7.94
2024-03-25T00:09:25.351Z,7.91
2024-03-25T00:10:26.292Z,7.88
2024-03-25T00:11:25.344Z,7.91
2024-03-25T00:12:26.320Z,7.87
2024-03-25T00:13:25.350Z,7.86
2024-03-25T00:14:25.350Z,7.85
2024-03-25T00:15:26.297Z,7.81
2024-03-25T00:16:25.356Z,7.76
2024-03-25T00:17:26.329Z,7.68
2024-03-25T00:18:25.321Z,7.72
2024-03-25T00:19:25.315Z,7.75
2024-03-25T00:20:26.321Z,7.73
2024-03-25T00:21:25.366Z,7.77
2024-03-25T00:22:26.335Z,7.82
2024-03-25T00:23:25.369Z,7.77
2024-03-25T00:24:30.014Z,7.72
2024-03-25T00:25:26.315Z,7.7
2024-03-25T00:26:25.380Z,7.76
2024-03-25T00:27:26.355Z,7.83
2024-03-25T00:28:25.395Z,7.89
2024-03-25T00:29:26.315Z,7.93
2024-03-25T00:30:26.334Z,7.87
2024-03-25T00:31:25.402Z,7.92
2024-03-25T00:32:26.397Z,7.99
2024-03-25T00:33:25.406Z,8.02
2024-03-25T00:34:26.333Z,8.04
2024-03-25T00:35:26.328Z,7.97
2024-03-25T00:36:25.391Z,7.99
2024-03-25T00:37:26.375Z,7.98
2024-03-25T00:38:25.403Z,7.9
2024-03-25T00:39:26.399Z,7.87
2024-03-25T00:40:26.367Z,7.81
2024-03-25T00:41:26.351Z,7.85
2024-03-25T00:42:25.371Z,7.84
2024-03-25T00:43:25.423Z,7.83
2024-03-25T00:44:26.372Z,7.81
2024-03-25T00:45:26.370Z,7.76
2024-03-25T00:46:26.404Z,7.85
2024-03-25T00:47:25.417Z,7.93
2024-03-25T00:48:25.427Z,7.93
2024-03-25T00:49:26.405Z,7.93
2024-03-25T00:50:26.386Z,7.86
2024-03-25T00:51:26.362Z,7.77
2024-03-25T00:52:25.388Z,7.7
2024-03-25T00:53:34.066Z,7.66
2024-03-25T00:54:25.427Z,7.72
2024-03-25T00:55:26.379Z,7.75
2024-03-25T00:56:26.387Z,7.77
2024-03-25T00:57:25.441Z,7.84
2024-03-25T00:58:26.373Z,7.76
2024-03-25T00:59:25.408Z,7.73
2024-03-25T01:00:26.392Z,7.75
2024-03-25T01:01:26.387Z,7.77
2024-03-25T01:02:25.453Z,7.76
2024-03-25T01:03:26.406Z,7.67
2024-03-25T01:04:25.453Z,7.72
2024-03-25T01:05:26.401Z,7.74
2024-03-25T01:06:26.475Z,7.71
2024-03-25T01:07:25.419Z,7.74
2024-03-25T01:08:26.454Z,7.71
2024-03-25T01:09:25.474Z,7.71
2024-03-25T01:10:29.134Z,7.7
2024-03-25T01:11:25.463Z,7.72
2024-03-25T01:12:25.498Z,7.75
2024-03-25T01:13:26.429Z,7.62
2024-03-25T01:14:25.442Z,7.64
2024-03-25T01:15:26.430Z,7.67
2024-03-25T01:16:25.481Z,7.74
2024-03-25T01:17:25.557Z,7.81
2024-03-25T01:18:26.454Z,7.86
2024-03-25T01:19:25.457Z,7.88
2024-03-25T01:20:26.455Z,7.87
2024-03-25T01:21:25.491Z,7.83
2024-03-25T01:22:30.166Z,7.92
2024-03-25T01:23:25.497Z,7.91
2024-03-25T01:24:25.524Z,7.84
2024-03-25T01:25:26.478Z,7.76
2024-03-25T01:26:25.492Z,7.76
2024-03-25T01:27:26.469Z,7.78
2024-03-25T01:28:25.468Z,7.77
2024-03-25T01:29:25.513Z,7.77
2024-03-25T01:30:26.492Z,7.79
2024-03-25T01:31:25.464Z,7.67
2024-03-25T01:32:26.496Z,7.72
2024-03-25T01:33:25.473Z,7.78
2024-03-25T01:34:25.543Z,7.85
2024-03-25T01:35:26.486Z,7.78
2024-03-25T01:36:25.477Z,7.77
2024-03-25T01:37:26.519Z,7.81
2024-03-25T01:38:25.485Z,7.85
2024-03-25T01:39:29.159Z,7.71
2024-03-25T01:40:26.494Z,7.67
2024-03-25T01:41:25.554Z,7.64
2024-03-25T01:42:26.488Z,7.67
2024-03-25T01:43:25.496Z,7.69
2024-03-25T01:44:26.497Z,7.7
2024-03-25T01:45:26.501Z,7.6
2024-03-25T01:46:25.581Z,7.61
2024-03-25T01:47:26.513Z,7.65
2024-03-25T01:48:25.526Z,7.72
2024-03-25T01:49:26.512Z,7.71
2024-03-25T01:50:26.499Z,7.67
2024-03-25T01:51:30.664Z,7.7
2024-03-25T01:52:25.511Z,7.69
2024-03-25T01:53:25.564Z,7.64
2024-03-25T01:54:26.495Z,7.71
2024-03-25T01:55:26.511Z,7.6
2024-03-25T01:56:26.515Z,7.58
2024-03-25T01:57:25.579Z,7.55
2024-03-25T01:58:25.570Z,7.56
2024-03-25T01:59:26.515Z,7.62
2024-03-25T02:00:26.551Z,7.57
2024-03-25T02:01:26.529Z,7.64
2024-03-25T02:02:25.580Z,7.63
2024-03-25T02:03:25.587Z,7.68
2024-03-25T02:04:26.522Z,7.71
2024-03-25T02:05:26.533Z,7.61
2024-03-25T02:06:26.527Z,7.63
2024-03-25T02:07:25.617Z,7.62
2024-03-25T02:08:31.910Z,7.61
2024-03-25T02:09:27.856Z,7.49
2024-03-25T02:10:26.568Z,7.38
2024-03-25T02:11:26.554Z,7.33
2024-03-25T02:12:25.596Z,7.4
2024-03-25T02:13:26.555Z,7.39
2024-03-25T02:14:25.606Z,7.37
2024-03-25T02:15:26.572Z,7.32
2024-03-25T02:16:26.549Z,7.38
2024-03-25T02:17:25.625Z,7.35
2024-03-25T02:18:26.566Z,7.36
2024-03-25T02:19:25.621Z,7.36
2024-03-25T02:20:34.256Z,7.36
2024-03-25T02:21:25.618Z,7.32
2024-03-25T02:22:25.623Z,7.32
2024-03-25T02:23:26.596Z,7.38
2024-03-25T02:24:25.639Z,7.31
2024-03-25T02:25:26.564Z,7.26
2024-03-25T02:26:25.629Z,7.39
2024-03-25T02:27:25.629Z,7.38
2024-03-25T02:28:26.579Z,7.31
2024-03-25T02:29:25.637Z,7.21
2024-03-25T02:30:26.584Z,7.19
2024-03-25T02:31:25.637Z,7.2
2024-03-25T02:32:25.655Z,7.18
2024-03-25T02:33:26.594Z,7.2
2024-03-25T02:34:25.651Z,7.25
2024-03-25T02:35:26.592Z,7.31
2024-03-25T02:36:25.652Z,7.35
2024-03-25T02:37:26.606Z,7.31
2024-03-25T02:38:25.655Z,7.21
2024-03-25T02:39:25.660Z,7.23
2024-03-25T02:40:26.596Z,7.18
2024-03-25T02:41:25.666Z,7.17
2024-03-25T02:42:26.609Z,7.21
2024-03-25T02:43:25.659Z,7.34
2024-03-25T02:44:25.663Z,7.36
2024-03-25T02:45:26.654Z,7.31
2024-03-25T02:46:25.676Z,7.42
2024-03-25T02:47:26.637Z,7.45
2024-03-25T02:48:25.637Z,7.46
2024-03-25T02:49:30.395Z,7.42
2024-03-25T02:50:26.699Z,7.35
2024-03-25T02:51:25.688Z,7.36
2024-03-25T02:52:26.630Z,7.37
2024-03-25T02:53:25.693Z,7.33
2024-03-25T02:54:26.680Z,7.34
2024-03-25T02:55:26.669Z,7.3
2024-03-25T02:56:25.669Z,7.34
2024-03-25T02:57:26.641Z,7.34
2024-03-25T02:58:25.711Z,7.23
2024-03-25T02:59:26.642Z,7.27
2024-03-25T03:00:26.699Z,7.24
2024-03-25T03:01:25.678Z,7.23
2024-03-25T03:02:26.662Z,7.26
2024-03-25T03:03:25.713Z,7.28
2024-03-25T03:04:26.668Z,7.31
2024-03-25T03:05:26.691Z,7.22
2024-03-25T03:06:29.332Z,7.26
2024-03-25T03:07:25.715Z,7.24
2024-03-25T03:08:25.728Z,7.24
2024-03-25T03:09:26.654Z,7.21
2024-03-25T03:10:26.690Z,7.12
2024-03-25T03:11:26.653Z,7.16
2024-03-25T03:12:25.686Z,7.21
2024-03-25T03:13:25.728Z,7.18
2024-03-25T03:14:26.669Z,7.19
2024-03-25T03:15:26.673Z,7.03
2024-03-25T03:16:26.686Z,6.97
2024-03-25T03:17:25.745Z,6.96
2024-03-25T03:18:30.390Z,7.02
2024-03-25T03:19:25.738Z,6.93
2024-03-25T03:20:26.708Z,6.84
2024-03-25T03:21:26.687Z,6.89
2024-03-25T03:22:25.748Z,6.85
2024-03-25T03:23:26.725Z,6.87
2024-03-25T03:24:25.751Z,6.91
2024-03-25T03:25:26.713Z,6.87
2024-03-25T03:26:26.706Z,6.77
2024-03-25T03:27:25.759Z,6.82
2024-03-25T03:28:26.740Z,6.79
2024-03-25T03:29:25.722Z,6.84
2024-03-25T03:30:26.708Z,6.77
2024-03-25T03:31:26.708Z,6.81
2024-03-25T03:32:25.722Z,6.76
2024-03-25T03:33:26.766Z,6.8
2024-03-25T03:34:25.727Z,6.81
2024-03-25T03:35:26.738Z,6.75
2024-03-25T03:36:25.732Z,6.84
2024-03-25T03:37:25.785Z,6.86
2024-03-25T03:38:26.759Z,6.86
2024-03-25T03:39:25.786Z,6.83
2024-03-25T03:40:26.740Z,6.82
2024-03-25T03:41:25.786Z,6.86
2024-03-25T03:42:25.790Z,6.87
2024-03-25T03:43:26.773Z,6.84
2024-03-25T03:44:25.755Z,6.76
2024-03-25T03:45:26.755Z,6.77
2024-03-25T03:46:25.803Z,6.81
2024-03-25T03:47:30.442Z,6.87
2024-03-25T03:48:25.795Z,6.92
2024-03-25T03:49:25.802Z,6.97
2024-03-25T03:50:26.746Z,6.91
2024-03-25T03:51:25.802Z,6.88
2024-03-25T03:52:26.795Z,6.92
2024-03-25T03:53:25.815Z,6.91
2024-03-25T03:54:25.831Z,6.89
2024-03-25T03:55:26.764Z,6.81
2024-03-25T03:56:25.828Z,6.76
2024-03-25T03:57:26.785Z,6.65
2024-03-25T03:58:25.824Z,6.67
2024-03-25T03:59:25.821Z,6.59
2024-03-25T04:00:26.811Z,6.61
2024-03-25T04:01:25.780Z,6.6
2024-03-25T04:02:26.828Z,6.55
2024-03-25T04:03:25.832Z,6.54
2024-03-25T04:04:26.789Z,6.58
2024-03-25T04:05:26.783Z,6.64
2024-03-25T04:06:25.795Z,6.71
2024-03-25T04:07:26.828Z,6.74
2024-03-25T04:08:25.823Z,6.81
2024-03-25T04:09:26.793Z,6.73
2024-03-25T04:10:26.812Z,6.7
2024-03-25T04:11:25.810Z,6.67
2024-03-25T04:12:26.832Z,6.62
2024-03-25T04:13:25.849Z,6.6
2024-03-25T04:14:26.806Z,6.57
2024-03-25T04:15:26.807Z,6.49
2024-03-25T04:16:30.498Z,6.49
2024-03-25T04:17:25.864Z,6.57
2024-03-25T04:18:25.823Z,6.7
2024-03-25T04:19:26.838Z,6.76
2024-03-25T04:20:26.796Z,6.81
2024-03-25T04:21:26.851Z,6.93
2024-03-25T04:22:25.833Z,6.85
2024-03-25T04:23:25.877Z,6.83
2024-03-25T04:24:26.853Z,6.96
2024-03-25T04:25:26.849Z,6.97
2024-03-25T04:26:26.840Z,7.03
2024-03-25T04:27:25.887Z,7.04
2024-03-25T04:28:25.886Z,7.09
2024-03-25T04:29:26.867Z,7.09
2024-03-25T04:30:26.840Z,7.06
2024-03-25T04:31:26.845Z,7.05
2024-03-25T04:32:25.923Z,6.9
2024-03-25T04:33:29.482Z,6.8
2024-03-25T04:34:25.897Z,6.74
2024-03-25T04:35:26.844Z,6.75
2024-03-25T04:36:28.434Z,6.74
2024-03-25T04:37:25.858Z,6.76
2024-03-25T04:38:26.855Z,6.68
2024-03-25T04:39:25.908Z,6.59
2024-03-25T04:40:26.859Z,6.53
2024-03-25T04:41:26.869Z,6.53
2024-03-25T04:42:25.920Z,6.46
2024-03-25T04:43:26.864Z,6.43
2024-03-25T04:44:25.883Z,6.41
2024-03-25T04:45:30.629Z,6.43
2024-03-25T04:46:25.882Z,6.47
2024-03-25T04:47:25.957Z,6.51
2024-03-25T04:48:26.872Z,6.56
2024-03-25T04:49:25.929Z,6.58
2024-03-25T04:50:26.875Z,6.64
2024-03-25T04:51:25.929Z,6.69
2024-03-25T04:52:25.935Z,6.71
2024-03-25T04:53:26.878Z,6.6
2024-03-25T04:54:25.951Z,6.65
2024-03-25T04:55:26.889Z,6.68
2024-03-25T04:56:25.949Z,6.67
2024-03-25T04:57:25.958Z,6.64
2024-03-25T04:58:28.724Z,6.74
2024-03-25T04:59:25.910Z,6.76
2024-03-25T05:00:26.895Z,6.84
2024-03-25T05:01:25.992Z,6.91
2024-03-25T05:02:26.941Z,6.83
2024-03-25T05:03:25.919Z,6.93
2024-03-25T05:04:25.913Z,6.93
2024-03-25T05:05:26.893Z,6.78
2024-03-25T05:06:25.969Z,6.68
2024-03-25T05:07:26.948Z,6.75
2024-03-25T05:08:25.977Z,6.63
2024-03-25T05:09:25.929Z,6.58
2024-03-25T05:10:26.936Z,6.56
2024-03-25T05:11:25.936Z,6.46
2024-03-25T05:12:26.948Z,6.53
2024-03-25T05:13:25.984Z,6.5
2024-03-25T05:14:30.690Z,6.58
2024-03-25T05:15:26.954Z,6.63
2024-03-25T05:16:25.984Z,6.65
2024-03-25T05:17:26.956Z,6.61
2024-03-25T05:18:25.945Z,6.59
2024-03-25T05:19:26.945Z,6.59
2024-03-25T05:20:26.937Z,6.53
2024-03-25T05:21:26.001Z,6.45
2024-03-25T05:22:26.953Z,6.46
2024-03-25T05:23:26.017Z,6.45
2024-03-25T05:24:26.968Z,6.46
2024-03-25T05:25:26.955Z,6.46
2024-03-25T05:26:25.962Z,6.43
2024-03-25T05:27:26.953Z,6.4
2024-03-25T05:28:26.014Z,6.43
2024-03-25T05:29:26.964Z,6.4
2024-03-25T05:30:26.989Z,6.46
2024-03-25T05:31:26.955Z,6.5
2024-03-25T05:32:26.031Z,6.53
2024-03-25T05:33:25.979Z,6.46
2024-03-25T05:34:26.978Z,6.41
2024-03-25T05:35:26.997Z,6.35
2024-03-25T05:36:26.964Z,6.37
2024-03-25T05:37:26.027Z,6.32
2024-03-25T05:38:26.027Z,6.28
2024-03-25T05:39:27.009Z,6.29
2024-03-25T05:40:26.981Z,6.25
2024-03-25T05:41:26.995Z,6.25
2024-03-25T05:42:25.998Z,6.19
2024-03-25T05:43:30.793Z,6.17
2024-03-25T05:44:26.041Z,6.19
2024-03-25T05:45:26.991Z,6.22
2024-03-25T05:46:26.977Z,6.21
2024-03-25T05:47:26.054Z,6.21
2024-03-25T05:48:26.988Z,6.2
2024-03-25T05:49:26.048Z,6.17
2024-03-25T05:50:26.988Z,6.08
2024-03-25T05:51:26.998Z,6.03
2024-03-25T05:52:26.023Z,6
2024-03-25T05:53:27.012Z,5.97
2024-03-25T05:54:26.061Z,5.96
2024-03-25T05:55:27.010Z,6.01
2024-03-25T05:56:27.017Z,5.94
2024-03-25T05:57:26.074Z,5.91
2024-03-25T05:58:27.014Z,5.89
2024-03-25T05:59:26.075Z,5.9
2024-03-25T06:00:27.046Z,5.93
2024-03-25T06:01:26.037Z,5.96
2024-03-25T06:02:26.084Z,6.01
2024-03-25T06:03:27.064Z,6.04
2024-03-25T06:04:26.089Z,6.02
2024-03-25T06:05:27.037Z,6.07
2024-03-25T06:06:26.095Z,6.08
2024-03-25T06:07:26.096Z,6.06
2024-03-25T06:08:27.081Z,6.11
2024-03-25T06:09:26.106Z,6.14
2024-03-25T06:10:27.047Z,6.13
2024-03-25T06:11:26.102Z,6.09
2024-03-25T06:12:30.794Z,6.17
2024-03-25T06:13:26.100Z,6.08
2024-03-25T06:14:26.101Z,6.18
2024-03-25T06:15:27.060Z,6.29
2024-03-25T06:16:26.146Z,6.38
2024-03-25T06:17:27.066Z,6.32
2024-03-25T06:18:26.073Z,6.51
2024-03-25T06:19:26.074Z,6.58
2024-03-25T06:20:27.074Z,6.59
2024-03-25T06:21:26.122Z,6.6
2024-03-25T06:22:27.089Z,6.64
2024-03-25T06:23:26.124Z,6.73
2024-03-25T06:24:26.078Z,6.79
2024-03-25T06:25:27.072Z,6.79
2024-03-25T06:26:26.136Z,6.71
2024-03-25T06:27:27.068Z,6.73
2024-03-25T06:28:26.144Z,6.86
2024-03-25T06:29:27.095Z,6.9
2024-03-25T06:30:27.082Z,6.91
2024-03-25T06:31:26.153Z,6.98
2024-03-25T06:32:27.109Z,7.03
2024-03-25T06:33:26.111Z,7.03
2024-03-25T06:34:27.095Z,7.13
2024-03-25T06:35:27.109Z,6.99
2024-03-25T06:36:26.156Z,7.03
2024-03-25T06:37:27.126Z,7.04
2024-03-25T06:38:26.149Z,7.11
2024-03-25T06:39:27.110Z,7.02
2024-03-25T06:40:27.099Z,6.95
2024-03-25T06:41:30.842Z,6.98
2024-03-25T06:42:26.177Z,6.93
2024-03-25T06:43:26.132Z,6.95
2024-03-25T06:44:27.149Z,6.96
2024-03-25T06:45:27.111Z,6.96
2024-03-25T06:46:27.109Z,7.04
2024-03-25T06:47:26.153Z,7.08
2024-03-25T06:48:26.172Z,7.08
2024-03-25T06:49:27.153Z,7.17
2024-03-25T06:50:27.135Z,7.17
2024-03-25T06:51:27.133Z,7.23
2024-03-25T06:52:26.190Z,7.26
2024-03-25T06:53:26.206Z,7.31
2024-03-25T06:54:27.191Z,7.38
2024-03-25T06:55:27.158Z,7.3
2024-03-25T06:56:27.152Z,7.33
2024-03-25T06:57:26.225Z,7.32
2024-03-25T06:58:27.144Z,7.43
2024-03-25T06:59:26.221Z,7.4
2024-03-25T07:00:27.211Z,7.32
2024-03-25T07:01:27.142Z,7.38
2024-03-25T07:02:26.228Z,7.44
2024-03-25T07:03:27.166Z,7.46
2024-03-25T07:04:26.170Z,7.34
2024-03-25T07:05:27.163Z,7.32
2024-03-25T07:06:27.169Z,7.33
2024-03-25T07:07:26.238Z,7.41
2024-03-25T07:08:27.169Z,7.49
2024-03-25T07:09:26.185Z,7.45
2024-03-25T07:10:30.905Z,7.36
2024-03-25T07:11:26.182Z,7.42
2024-03-25T07:12:26.237Z,7.45
2024-03-25T07:13:27.167Z,7.46
2024-03-25T07:14:26.239Z,7.4
2024-03-25T07:15:27.206Z,7.4
2024-03-25T07:16:26.216Z,7.53
2024-03-25T07:17:26.256Z,7.62
2024-03-25T07:18:27.220Z,7.65
2024-03-25T07:19:26.195Z,7.57
2024-03-25T07:20:27.216Z,7.52
2024-03-25T07:21:28.198Z,7.61
2024-03-25T07:22:26.209Z,7.6
2024-03-25T07:23:27.198Z,7.6
2024-03-25T07:24:26.262Z,7.61
2024-03-25T07:25:27.212Z,7.63
2024-03-25T07:26:26.261Z,7.7
2024-03-25T07:27:27.205Z,7.77
2024-03-25T07:28:26.800Z,7.82
2024-03-25T07:29:26.219Z,7.82
2024-03-25T07:30:27.217Z,7.69
2024-03-25T07:31:26.229Z,7.69
2024-03-25T07:32:27.261Z,7.7
2024-03-25T07:33:26.243Z,7.68
2024-03-25T07:34:26.300Z,7.71
2024-03-25T07:35:27.307Z,7.76
2024-03-25T07:36:26.280Z,7.87
2024-03-25T07:37:27.229Z,7.88
2024-03-25T07:38:26.439Z,7.9
2024-03-25T07:39:30.986Z,7.86
2024-03-25T07:40:27.275Z,7.87
2024-03-25T07:41:26.254Z,7.92
2024-03-25T07:42:27.250Z,8.03
2024-03-25T07:43:26.298Z,8.03
2024-03-25T07:44:27.255Z,8.01
2024-03-25T07:45:27.307Z,8.01
2024-03-25T07:46:26.302Z,8.07
2024-03-25T07:47:27.260Z,8.13
2024-03-25T07:48:26.285Z,8.19
2024-03-25T07:49:27.261Z,8.2
2024-03-25T07:50:27.280Z,8.15
2024-03-25T07:51:26.404Z,8.09
2024-03-25T07:52:27.266Z,8.08
2024-03-25T07:53:26.272Z,8.17
2024-03-25T07:54:27.300Z,8.28
2024-03-25T07:55:27.312Z,8.28
2024-03-25T07:56:27.719Z,8.36
2024-03-25T07:57:26.299Z,8.4
2024-03-25T07:58:26.340Z,8.39
2024-03-25T07:59:27.320Z,8.34
2024-03-25T08:00:27.299Z,8.33
2024-03-25T08:01:27.314Z,8.42
2024-03-25T08:02:26.296Z,8.42
2024-03-25T08:03:26.382Z,8.43
2024-03-25T08:04:27.350Z,8.44
2024-03-25T08:05:27.352Z,8.41
2024-03-25T08:06:27.289Z,8.51
2024-03-25T08:07:26.343Z,8.55
2024-03-25T08:08:31.084Z,8.52
2024-03-25T08:09:26.328Z,8.57
2024-03-25T08:10:27.323Z,8.56
2024-03-25T08:11:27.380Z,8.62
2024-03-25T08:12:26.316Z,8.7
2024-03-25T08:13:35.954Z,8.68
2024-03-25T08:14:26.312Z,8.74
2024-03-25T08:15:27.302Z,8.68
2024-03-25T08:16:27.311Z,8.7
2024-03-25T08:17:26.359Z,8.7
2024-03-25T08:18:27.353Z,8.79
2024-03-25T08:19:26.326Z,8.84
2024-03-25T08:20:27.342Z,8.75
2024-03-25T08:21:27.355Z,8.79
2024-03-25T08:22:26.332Z,8.84
2024-03-25T08:23:27.314Z,8.85
2024-03-25T08:24:26.382Z,8.91
2024-03-25T08:25:27.334Z,8.92
2024-03-25T08:26:26.342Z,8.96
2024-03-25T08:27:26.435Z,8.98
2024-03-25T08:28:27.331Z,9.02
2024-03-25T08:29:26.390Z,9.04
2024-03-25T08:30:27.337Z,9.08
2024-03-25T08:31:26.468Z,9.15
2024-03-25T08:32:26.363Z,9.17
2024-03-25T08:33:27.359Z,9.18
2024-03-25T08:34:26.404Z,9.26
2024-03-25T08:35:27.346Z,9.28
2024-03-25T08:36:26.413Z,9.37
2024-03-25T08:37:31.083Z,9.38
2024-03-25T08:38:26.417Z,9.42
2024-03-25T08:39:26.368Z,9.42
2024-03-25T08:40:27.361Z,9.39
2024-03-25T08:41:26.423Z,9.4
2024-03-25T08:42:27.363Z,9.47
2024-03-25T08:43:26.372Z,9.52
2024-03-25T08:44:26.428Z,9.57
2024-03-25T08:45:27.408Z,9.53
2024-03-25T08:46:26.425Z,9.64
2024-03-25T08:47:27.392Z,9.67
2024-03-25T08:48:26.433Z,9.79
2024-03-25T08:49:26.408Z,9.85
2024-03-25T08:50:27.414Z,9.81
2024-03-25T08:51:26.396Z,9.84
2024-03-25T08:52:27.399Z,9.89
2024-03-25T08:53:26.437Z,9.9
2024-03-25T08:54:30.090Z,9.97
2024-03-25T08:55:27.451Z,9.97
2024-03-25T08:56:26.414Z,10.03
2024-03-25T08:57:27.551Z,10.07
2024-03-25T08:58:26.481Z,10.1
2024-03-25T08:59:27.412Z,10.15
2024-03-25T09:00:27.407Z,10.16
2024-03-25T09:01:26.442Z,10.26
2024-03-25T09:02:27.446Z,10.34
2024-03-25T09:03:26.462Z,10.41
2024-03-25T09:04:28.382Z,10.44
2024-03-25T09:05:27.436Z,10.42
2024-03-25T09:06:35.139Z,10.49
2024-03-25T09:07:26.464Z,10.4
2024-03-25T09:08:26.465Z,10.42
2024-03-25T09:09:27.471Z,10.48
2024-03-25T09:10:27.455Z,10.46
2024-03-25T09:11:27.454Z,10.46
2024-03-25T09:12:26.568Z,10.48
2024-03-25T09:13:26.442Z,10.46
2024-03-25T09:14:27.467Z,10.44
2024-03-25T09:15:27.440Z,10.45
2024-03-25T09:16:27.463Z,10.46
2024-03-25T09:17:26.518Z,10.49
2024-03-25T09:18:26.450Z,10.55
2024-03-25T09:19:27.491Z,10.54
2024-03-25T09:20:27.444Z,10.55
2024-03-25T09:21:27.457Z,10.63
2024-03-25T09:22:26.522Z,10.59
2024-03-25T09:23:30.160Z,10.7
2024-03-25T09:24:26.527Z,10.64
2024-03-25T09:25:27.455Z,10.63
2024-03-25T09:26:27.487Z,10.68
2024-03-25T09:27:26.656Z,10.71
2024-03-25T09:28:27.460Z,10.77
2024-03-25T09:29:26.494Z,10.77
2024-03-25T09:30:27.483Z,10.63
2024-03-25T09:31:27.474Z,10.74
2024-03-25T09:32:26.489Z,10.79
2024-03-25T09:33:27.494Z,10.82
2024-03-25T09:34:26.529Z,10.84
2024-03-25T09:35:31.226Z,10.79
2024-03-25T09:36:26.554Z,10.78
2024-03-25T09:37:26.527Z,10.77
2024-03-25T09:38:27.486Z,10.82
2024-03-25T09:39:26.543Z,10.81
2024-03-25T09:40:27.496Z,10.78
2024-03-25T09:41:26.554Z,10.84
2024-03-25T09:42:26.706Z,10.85
2024-03-25T09:43:27.557Z,10.86
2024-03-25T09:44:26.513Z,10.89
2024-03-25T09:45:27.527Z,10.83
2024-03-25T09:46:26.531Z,10.83
2024-03-25T09:47:26.530Z,10.89
2024-03-25T09:48:27.530Z,10.99
2024-03-25T09:49:26.539Z,11.02
2024-03-25T09:50:27.543Z,10.99
2024-03-25T09:51:26.565Z,11.04
2024-03-25T09:52:27.511Z,11.08
2024-03-25T09:53:26.591Z,11.1
2024-03-25T09:54:26.629Z,11.15
2024-03-25T09:55:27.516Z,11.11
2024-03-25T09:56:26.590Z,11.16
2024-03-25T09:57:27.534Z,11.21
2024-03-25T09:58:26.590Z,11.27
2024-03-25T09:59:26.585Z,11.29
2024-03-25T10:00:27.558Z,11.24
2024-03-25T10:01:26.644Z,11.32
2024-03-25T10:02:27.564Z,11.34
2024-03-25T10:03:26.579Z,11.36
2024-03-25T10:04:31.287Z,11.38
2024-03-25T10:05:27.588Z,11.28
2024-03-25T10:06:26.633Z,11.35
2024-03-25T10:07:27.603Z,11.34
2024-03-25T10:08:26.551Z,11.38
2024-03-25T10:09:27.543Z,11.37
2024-03-25T10:10:27.653Z,11.31
2024-03-25T10:11:26.602Z,11.34
2024-03-25T10:12:27.605Z,11.36
2024-03-25T10:13:26.624Z,11.39
2024-03-25T10:14:27.588Z,11.45
2024-03-25T10:15:27.612Z,11.39
2024-03-25T10:16:26.713Z,11.37
2024-03-25T10:17:27.614Z,11.47
2024-03-25T10:18:26.595Z,11.32
2024-03-25T10:19:27.621Z,11.46
2024-03-25T10:20:27.567Z,11.39
2024-03-25T10:21:30.270Z,11.34
2024-03-25T10:22:26.632Z,11.34
2024-03-25T10:23:26.588Z,11.37
2024-03-25T10:24:27.647Z,11.38
2024-03-25T10:25:27.589Z,11.29
2024-03-25T10:26:27.667Z,11.32
2024-03-25T10:27:26.598Z,11.36
2024-03-25T10:28:26.703Z,11.38
2024-03-25T10:29:27.620Z,11.4
2024-03-25T10:30:27.679Z,11.29
2024-03-25T10:31:27.629Z,11.26
2024-03-25T10:32:26.664Z,11.29
2024-03-25T10:33:31.344Z,11.37
2024-03-25T10:34:26.645Z,11.32
2024-03-25T10:35:28.756Z,11.24
2024-03-25T10:36:27.624Z,11.2
2024-03-25T10:37:26.796Z,11.22
2024-03-25T10:38:27.635Z,11.23
2024-03-25T10:39:26.649Z,11.27
2024-03-25T10:40:27.674Z,11.22
2024-03-25T10:41:27.625Z,11.27
2024-03-25T10:42:26.630Z,11.31
2024-03-25T10:43:27.690Z,11.2
2024-03-25T10:44:26.633Z,11.26
2024-03-25T10:45:27.686Z,11.27
2024-03-25T10:46:27.638Z,11.35
2024-03-25T10:47:26.715Z,11.38
2024-03-25T10:48:27.637Z,11.26
2024-03-25T10:49:26.700Z,11.31
2024-03-25T10:50:29.703Z,11.28
2024-03-25T10:51:26.745Z,11.13
2024-03-25T10:52:26.650Z,11.27
2024-03-25T10:53:27.670Z,11.33
2024-03-25T10:54:26.908Z,11.36
2024-03-25T10:55:27.669Z,11.27
2024-03-25T10:56:26.693Z,11.31
2024-03-25T10:57:26.666Z,11.36
2024-03-25T10:58:27.675Z,11.36
2024-03-25T10:59:26.857Z,11.39
2024-03-25T11:00:27.704Z,11.31
2024-03-25T11:01:26.684Z,11.35
2024-03-25T11:02:31.912Z,11.39
2024-03-25T11:03:26.673Z,11.42
2024-03-25T11:04:26.743Z,11.34
2024-03-25T11:05:27.931Z,11.31
2024-03-25T11:06:26.692Z,11.35
2024-03-25T11:07:31.290Z,11.35
2024-03-25T11:08:26.753Z,11.37
2024-03-25T11:09:26.697Z,11.4
2024-03-25T11:10:27.700Z,11.36
2024-03-25T11:11:26.717Z,11.42
2024-03-25T11:12:27.694Z,11.41
2024-03-25T11:13:26.747Z,11.42
2024-03-25T11:14:26.747Z,11.43
2024-03-25T11:15:27.697Z,11.36
2024-03-25T11:16:26.776Z,11.43
2024-03-25T11:17:27.754Z,11.42
2024-03-25T11:18:26.708Z,11.5
2024-03-25T11:19:27.728Z,11.58
2024-03-25T11:20:27.773Z,11.5
2024-03-25T11:21:26.732Z,11.57
2024-03-25T11:22:27.731Z,11.6
2024-03-25T11:23:26.747Z,11.62
2024-03-25T11:24:27.721Z,11.61
2024-03-25T11:25:27.744Z,11.53
2024-03-25T11:26:26.769Z,11.5
2024-03-25T11:27:27.725Z,11.59
2024-03-25T11:28:26.778Z,11.59
2024-03-25T11:29:27.730Z,11.59
2024-03-25T11:30:27.727Z,11.51
2024-03-25T11:31:34.132Z,11.55
2024-03-25T11:32:26.812Z,11.55
2024-03-25T11:33:26.744Z,11.59
2024-03-25T11:34:27.756Z,11.56
2024-03-25T11:35:27.740Z,11.52
2024-03-25T11:36:27.773Z,11.6
2024-03-25T11:37:26.799Z,11.58
2024-03-25T11:38:26.799Z,11.59
2024-03-25T11:39:27.760Z,11.6
2024-03-25T11:40:27.767Z,11.55
2024-03-25T11:41:27.793Z,11.54
2024-03-25T11:42:26.829Z,11.41
2024-03-25T11:43:26.802Z,11.41
2024-03-25T11:44:27.768Z,11.45
2024-03-25T11:45:27.797Z,11.43
2024-03-25T11:46:27.815Z,11.4
2024-03-25T11:47:26.792Z,11.45
2024-03-25T11:48:27.767Z,11.46
2024-03-25T11:49:26.823Z,11.47
2024-03-25T11:50:27.797Z,11.43
2024-03-25T11:51:27.799Z,11.45
2024-03-25T11:52:26.792Z,11.48
2024-03-25T11:53:27.782Z,11.44
2024-03-25T11:54:26.842Z,11.49
2024-03-25T11:55:27.779Z,11.45
2024-03-25T11:56:27.836Z,11.54
2024-03-25T11:57:27.550Z,11.6
2024-03-25T11:58:27.785Z,11.64
2024-03-25T11:59:26.843Z,11.72
2024-03-25T12:00:31.584Z,11.66
2024-03-25T12:01:26.807Z,11.74
2024-03-25T12:02:26.876Z,11.76
2024-03-25T12:03:39.046Z,11.81
2024-03-25T12:04:27.792Z,11.85
2024-03-25T12:05:36.710Z,11.77
2024-03-25T12:06:26.820Z,11.85
2024-03-25T12:07:26.880Z,11.87
2024-03-25T12:08:27.850Z,11.93
2024-03-25T12:09:26.876Z,11.93
2024-03-25T12:10:27.849Z,11.88
2024-03-25T12:11:26.871Z,11.94
2024-03-25T12:12:26.871Z,11.97
2024-03-25T12:13:27.829Z,12.02
2024-03-25T12:14:26.884Z,12.03
2024-03-25T12:15:27.881Z,11.97
2024-03-25T12:16:26.858Z,11.95
2024-03-25T12:17:27.888Z,12
2024-03-25T12:18:26.844Z,12.02
2024-03-25T12:19:26.893Z,12
2024-03-25T12:20:27.844Z,11.95
2024-03-25T12:21:26.890Z,11.99
2024-03-25T12:22:27.871Z,12.07
2024-03-25T12:23:26.941Z,12.09
2024-03-25T12:24:26.872Z,12.11
2024-03-25T12:25:27.849Z,12.03
2024-03-25T12:26:26.904Z,12.05
2024-03-25T12:27:27.965Z,12
2024-03-25T12:28:26.863Z,12.06
2024-03-25T12:29:35.517Z,12.05
2024-03-25T12:30:27.873Z,11.96
2024-03-25T12:31:26.872Z,11.96
2024-03-25T12:32:28.209Z,11.94
2024-03-25T12:33:26.888Z,11.94
2024-03-25T12:34:27.889Z,11.91
2024-03-25T12:35:27.876Z,11.85
2024-03-25T12:36:26.947Z,11.84
2024-03-25T12:37:27.916Z,11.82
2024-03-25T12:38:26.946Z,11.82
2024-03-25T12:39:27.917Z,11.45
2024-03-25T12:40:27.896Z,11.56
2024-03-25T12:41:26.942Z,11.58
2024-03-25T12:42:27.909Z,11.68
2024-03-25T12:43:33.627Z,11.71
2024-03-25T12:44:27.916Z,11.74
2024-03-25T12:45:27.888Z,11.59
2024-03-25T12:46:30.556Z,11.65
2024-03-25T12:47:26.926Z,11.72
2024-03-25T12:48:26.982Z,11.75
2024-03-25T12:49:27.931Z,11.78
2024-03-25T12:50:27.899Z,11.71
2024-03-25T12:51:27.938Z,11.75
2024-03-25T12:52:26.973Z,11.81
2024-03-25T12:53:26.942Z,11.84
2024-03-25T12:54:27.969Z,11.86
2024-03-25T12:55:27.924Z,11.79
2024-03-25T12:56:27.957Z,11.8
2024-03-25T12:57:26.981Z,11.83
2024-03-25T12:58:31.742Z,11.88
2024-03-25T12:59:26.935Z,11.9
2024-03-25T13:00:27.943Z,11.87
2024-03-25T13:01:27.926Z,11.9
2024-03-25T13:02:27.035Z,11.94
2024-03-25T13:03:27.960Z,11.96
2024-03-25T13:04:26.951Z,11.96
2024-03-25T13:05:27.962Z,11.88
2024-03-25T13:06:27.947Z,11.9
2024-03-25T13:07:27.007Z,11.93
2024-03-25T13:08:28.455Z,11.92
2024-03-25T13:09:26.953Z,11.92
2024-03-25T13:10:27.953Z,11.8
2024-03-25T13:11:27.954Z,11.79
2024-03-25T13:12:27.006Z,11.8